sensor_id;sensor_type;location;lat;lon;timestamp;P1;durP1;ratioP1;P2;durP2;ratioP2
47365;SDS011;33105;47.964;7.982;2023-07-22T00:00:19;5.25;;;2.20;;
47365;SDS011;33105;47.964;7.982;2023-07-22T00:03:45;3.92;;;2.05;;
47365;SDS011;33105;47.964;7.982;2023-07-22T00:06:46;5.18;;;2.55;;
47365;SDS011;33105;47.964;7.982;2023-07-22T00:09:57;3.58;;;2.20;;
47365;SDS011;33105;47.964;7.982;2023-07-22T00:13:16;2.55;;;1.98;;
47365;SDS011;33105;47.964;7.982;2023-07-22T00:17:13;4.45;;;2.53;;
47365;SDS011;33105;47.964;7.982;2023-07-22T00:20:28;8.38;;;2.60;;
47365;SDS011;33105;47.964;7.982;2023-07-22T00:24:09;6.28;;;1.98;;
47365;SDS011;33105;47.964;7.982;2023-07-22T00:27:53;3.60;;;1.75;;
47365;SDS011;33105;47.964;7.982;2023-07-22T00:31:02;6.78;;;2.00;;
47365;SDS011;33105;47.964;7.982;2023-07-22T00:34:13;2.10;;;1.73;;
47365;SDS011;33105;47.964;7.982;2023-07-22T00:37:17;2.40;;;2.08;;
47365;SDS011;33105;47.964;7.982;2023-07-22T00:44:14;3.10;;;2.13;;
47365;SDS011;33105;47.964;7.982;2023-07-22T00:47:41;2.70;;;2.03;;
47365;SDS011;33105;47.964;7.982;2023-07-22T00:50:43;3.30;;;2.13;;
47365;SDS011;33105;47.964;7.982;2023-07-22T00:53:45;3.05;;;2.22;;
47365;SDS011;33105;47.964;7.982;2023-07-22T00:57:06;5.80;;;2.50;;
47365;SDS011;33105;47.964;7.982;2023-07-22T01:00:17;3.58;;;2.13;;
47365;SDS011;33105;47.964;7.982;2023-07-22T01:03:19;4.28;;;2.10;;
47365;SDS011;33105;47.964;7.982;2023-07-22T01:06:21;3.13;;;1.90;;
47365;SDS011;33105;47.964;7.982;2023-07-22T01:09:47;2.70;;;1.88;;
47365;SDS011;33105;47.964;7.982;2023-07-22T01:12:49;4.28;;;1.88;;
47365;SDS011;33105;47.964;7.982;2023-07-22T01:16:01;3.45;;;2.42;;
47365;SDS011;33105;47.964;7.982;2023-07-22T01:19:02;3.15;;;2.00;;
47365;SDS011;33105;47.964;7.982;2023-07-22T01:22:06;3.17;;;2.03;;
47365;SDS011;33105;47.964;7.982;2023-07-22T01:25:24;4.95;;;2.28;;
47365;SDS011;33105;47.964;7.982;2023-07-22T01:29:03;3.45;;;1.85;;
47365;SDS011;33105;47.964;7.982;2023-07-22T01:32:14;4.47;;;2.20;;
47365;SDS011;33105;47.964;7.982;2023-07-22T01:35:16;3.45;;;2.33;;
47365;SDS011;33105;47.964;7.982;2023-07-22T01:38:17;3.95;;;2.10;;
47365;SDS011;33105;47.964;7.982;2023-07-22T01:41:19;4.40;;;1.75;;
47365;SDS011;33105;47.964;7.982;2023-07-22T01:44:20;2.40;;;1.83;;
47365;SDS011;33105;47.964;7.982;2023-07-22T01:47:24;2.10;;;1.90;;
47365;SDS011;33105;47.964;7.982;2023-07-22T01:50:28;2.88;;;1.90;;
47365;SDS011;33105;47.964;7.982;2023-07-22T01:53:30;4.63;;;2.03;;
47365;SDS011;33105;47.964;7.982;2023-07-22T01:56:32;3.00;;;1.90;;
47365;SDS011;33105;47.964;7.982;2023-07-22T01:59:43;3.72;;;2.30;;
47365;SDS011;33105;47.964;7.982;2023-07-22T02:02:44;3.20;;;1.80;;
47365;SDS011;33105;47.964;7.982;2023-07-22T02:05:50;3.05;;;1.90;;
47365;SDS011;33105;47.964;7.982;2023-07-22T02:09:03;3.10;;;2.03;;
47365;SDS011;33105;47.964;7.982;2023-07-22T02:12:09;3.08;;;2.28;;
47365;SDS011;33105;47.964;7.982;2023-07-22T02:15:11;9.30;;;2.03;;
47365;SDS011;33105;47.964;7.982;2023-07-22T02:18:12;2.00;;;1.73;;
47365;SDS011;33105;47.964;7.982;2023-07-22T02:21:13;2.60;;;1.83;;
47365;SDS011;33105;47.964;7.982;2023-07-22T02:24:15;5.32;;;1.70;;
47365;SDS011;33105;47.964;7.982;2023-07-22T02:27:17;3.08;;;1.65;;
47365;SDS011;33105;47.964;7.982;2023-07-22T02:30:18;3.15;;;2.00;;
47365;SDS011;33105;47.964;7.982;2023-07-22T02:33:23;2.28;;;1.67;;
47365;SDS011;33105;47.964;7.982;2023-07-22T02:36:26;2.50;;;1.60;;
47365;SDS011;33105;47.964;7.982;2023-07-22T02:39:30;7.15;;;2.05;;
47365;SDS011;33105;47.964;7.982;2023-07-22T02:42:34;2.15;;;1.90;;
47365;SDS011;33105;47.964;7.982;2023-07-22T02:45:39;2.92;;;1.80;;
47365;SDS011;33105;47.964;7.982;2023-07-22T02:48:41;4.72;;;1.83;;
47365;SDS011;33105;47.964;7.982;2023-07-22T02:51:42;3.13;;;1.90;;
47365;SDS011;33105;47.964;7.982;2023-07-22T02:54:53;2.08;;;1.52;;
47365;SDS011;33105;47.964;7.982;2023-07-22T02:58:14;3.50;;;2.22;;
47365;SDS011;33105;47.964;7.982;2023-07-22T03:01:18;2.95;;;2.00;;
47365;SDS011;33105;47.964;7.982;2023-07-22T03:04:20;3.83;;;1.83;;
47365;SDS011;33105;47.964;7.982;2023-07-22T03:07:21;2.15;;;1.67;;
47365;SDS011;33105;47.964;7.982;2023-07-22T03:10:23;2.63;;;1.70;;
47365;SDS011;33105;47.964;7.982;2023-07-22T03:13:26;4.03;;;1.95;;
47365;SDS011;33105;47.964;7.982;2023-07-22T03:16:30;4.97;;;1.90;;
47365;SDS011;33105;47.964;7.982;2023-07-22T03:19:33;1.73;;;1.42;;
47365;SDS011;33105;47.964;7.982;2023-07-22T03:22:34;2.17;;;1.70;;
47365;SDS011;33105;47.964;7.982;2023-07-22T03:25:35;2.78;;;1.98;;
47365;SDS011;33105;47.964;7.982;2023-07-22T03:28:37;2.25;;;1.70;;
47365;SDS011;33105;47.964;7.982;2023-07-22T03:31:38;2.58;;;1.80;;
47365;SDS011;33105;47.964;7.982;2023-07-22T03:34:40;2.67;;;1.90;;
47365;SDS011;33105;47.964;7.982;2023-07-22T03:37:42;4.22;;;1.92;;
47365;SDS011;33105;47.964;7.982;2023-07-22T03:40:44;2.13;;;1.80;;
47365;SDS011;33105;47.964;7.982;2023-07-22T03:43:45;5.15;;;1.73;;
47365;SDS011;33105;47.964;7.982;2023-07-22T03:46:46;3.17;;;1.52;;
47365;SDS011;33105;47.964;7.982;2023-07-22T03:49:47;2.97;;;1.80;;
47365;SDS011;33105;47.964;7.982;2023-07-22T03:52:49;4.72;;;2.08;;
47365;SDS011;33105;47.964;7.982;2023-07-22T03:55:50;3.17;;;1.83;;
47365;SDS011;33105;47.964;7.982;2023-07-22T03:58:51;1.85;;;1.60;;
47365;SDS011;33105;47.964;7.982;2023-07-22T04:01:53;2.08;;;1.63;;
47365;SDS011;33105;47.964;7.982;2023-07-22T04:04:58;3.55;;;1.67;;
47365;SDS011;33105;47.964;7.982;2023-07-22T04:07:59;1.77;;;1.30;;
47365;SDS011;33105;47.964;7.982;2023-07-22T04:11:00;2.40;;;1.55;;
47365;SDS011;33105;47.964;7.982;2023-07-22T04:14:02;1.83;;;1.50;;
47365;SDS011;33105;47.964;7.982;2023-07-22T04:17:03;2.17;;;1.33;;
47365;SDS011;33105;47.964;7.982;2023-07-22T04:20:08;2.95;;;1.40;;
47365;SDS011;33105;47.964;7.982;2023-07-22T04:23:10;2.50;;;1.70;;
47365;SDS011;33105;47.964;7.982;2023-07-22T04:26:11;3.80;;;1.42;;
47365;SDS011;33105;47.964;7.982;2023-07-22T04:29:12;7.10;;;1.95;;
47365;SDS011;33105;47.964;7.982;2023-07-22T04:32:14;2.90;;;1.58;;
47365;SDS011;33105;47.964;7.982;2023-07-22T04:35:15;2.53;;;1.48;;
47365;SDS011;33105;47.964;7.982;2023-07-22T04:38:23;2.72;;;1.60;;
47365;SDS011;33105;47.964;7.982;2023-07-22T04:41:28;1.63;;;1.38;;
47365;SDS011;33105;47.964;7.982;2023-07-22T04:44:29;3.13;;;1.73;;
47365;SDS011;33105;47.964;7.982;2023-07-22T04:47:31;5.35;;;2.00;;
47365;SDS011;33105;47.964;7.982;2023-07-22T04:50:32;2.97;;;1.80;;
47365;SDS011;33105;47.964;7.982;2023-07-22T04:53:34;2.80;;;1.88;;
47365;SDS011;33105;47.964;7.982;2023-07-22T04:56:35;4.45;;;2.03;;
47365;SDS011;33105;47.964;7.982;2023-07-22T04:59:36;2.50;;;1.50;;
47365;SDS011;33105;47.964;7.982;2023-07-22T05:02:38;2.97;;;2.00;;
47365;SDS011;33105;47.964;7.982;2023-07-22T05:05:39;1.70;;;1.55;;
47365;SDS011;33105;47.964;7.982;2023-07-22T05:08:40;3.53;;;1.83;;
47365;SDS011;33105;47.964;7.982;2023-07-22T05:11:42;4.03;;;1.80;;
47365;SDS011;33105;47.964;7.982;2023-07-22T05:14:46;2.15;;;1.58;;
47365;SDS011;33105;47.964;7.982;2023-07-22T05:17:47;2.22;;;1.40;;
47365;SDS011;33105;47.964;7.982;2023-07-22T05:20:49;2.20;;;1.80;;
47365;SDS011;33105;47.964;7.982;2023-07-22T05:23:50;1.58;;;1.48;;
47365;SDS011;33105;47.964;7.982;2023-07-22T05:26:52;2.67;;;1.42;;
47365;SDS011;33105;47.964;7.982;2023-07-22T05:29:55;5.15;;;1.90;;
47365;SDS011;33105;47.964;7.982;2023-07-22T05:33:18;2.22;;;1.58;;
47365;SDS011;33105;47.964;7.982;2023-07-22T05:36:34;3.42;;;1.60;;
47365;SDS011;33105;47.964;7.982;2023-07-22T05:39:39;2.42;;;1.80;;
47365;SDS011;33105;47.964;7.982;2023-07-22T05:43:33;1.48;;;1.30;;
47365;SDS011;33105;47.964;7.982;2023-07-22T05:46:38;3.15;;;1.55;;
47365;SDS011;33105;47.964;7.982;2023-07-22T05:49:42;2.45;;;1.42;;
47365;SDS011;33105;47.964;7.982;2023-07-22T05:52:51;2.63;;;1.60;;
47365;SDS011;33105;47.964;7.982;2023-07-22T05:56:02;2.42;;;1.48;;
47365;SDS011;33105;47.964;7.982;2023-07-22T05:59:07;4.57;;;1.55;;
47365;SDS011;33105;47.964;7.982;2023-07-22T06:02:08;2.17;;;1.70;;
47365;SDS011;33105;47.964;7.982;2023-07-22T06:05:17;1.42;;;1.13;;
47365;SDS011;33105;47.964;7.982;2023-07-22T06:08:26;2.35;;;1.65;;
47365;SDS011;33105;47.964;7.982;2023-07-22T06:11:28;3.80;;;1.45;;
47365;SDS011;33105;47.964;7.982;2023-07-22T06:14:29;2.83;;;1.40;;
47365;SDS011;33105;47.964;7.982;2023-07-22T06:17:31;3.88;;;1.63;;
47365;SDS011;33105;47.964;7.982;2023-07-22T06:20:32;1.30;;;1.10;;
47365;SDS011;33105;47.964;7.982;2023-07-22T06:23:34;2.45;;;1.45;;
47365;SDS011;33105;47.964;7.982;2023-07-22T06:26:35;2.85;;;1.42;;
47365;SDS011;33105;47.964;7.982;2023-07-22T06:29:37;2.10;;;1.42;;
47365;SDS011;33105;47.964;7.982;2023-07-22T06:32:39;5.07;;;1.42;;
47365;SDS011;33105;47.964;7.982;2023-07-22T06:35:55;4.55;;;1.65;;
47365;SDS011;33105;47.964;7.982;2023-07-22T06:47:15;2.90;;;1.77;;
47365;SDS011;33105;47.964;7.982;2023-07-22T06:50:46;1.60;;;1.20;;
47365;SDS011;33105;47.964;7.982;2023-07-22T06:53:48;2.30;;;1.48;;
47365;SDS011;33105;47.964;7.982;2023-07-22T06:56:50;2.60;;;1.40;;
47365;SDS011;33105;47.964;7.982;2023-07-22T07:00:04;2.78;;;1.58;;
47365;SDS011;33105;47.964;7.982;2023-07-22T07:03:06;2.22;;;1.65;;
47365;SDS011;33105;47.964;7.982;2023-07-22T07:06:08;2.35;;;1.40;;
47365;SDS011;33105;47.964;7.982;2023-07-22T07:09:09;4.80;;;1.60;;
47365;SDS011;33105;47.964;7.982;2023-07-22T07:12:16;3.53;;;1.58;;
47365;SDS011;33105;47.964;7.982;2023-07-22T07:15:37;3.45;;;1.58;;
47365;SDS011;33105;47.964;7.982;2023-07-22T07:18:48;2.58;;;1.40;;
47365;SDS011;33105;47.964;7.982;2023-07-22T07:21:50;3.17;;;1.65;;
47365;SDS011;33105;47.964;7.982;2023-07-22T07:24:54;1.75;;;1.20;;
47365;SDS011;33105;47.964;7.982;2023-07-22T07:28:06;2.80;;;1.60;;
47365;SDS011;33105;47.964;7.982;2023-07-22T07:31:50;1.42;;;1.30;;
47365;SDS011;33105;47.964;7.982;2023-07-22T07:34:57;2.95;;;1.58;;
47365;SDS011;33105;47.964;7.982;2023-07-22T07:38:48;2.45;;;1.40;;
47365;SDS011;33105;47.964;7.982;2023-07-22T07:42:04;4.13;;;1.95;;
47365;SDS011;33105;47.964;7.982;2023-07-22T07:45:05;2.10;;;1.60;;
47365;SDS011;33105;47.964;7.982;2023-07-22T07:51:26;1.80;;;1.65;;
47365;SDS011;33105;47.964;7.982;2023-07-22T07:54:37;4.35;;;1.90;;
47365;SDS011;33105;47.964;7.982;2023-07-22T07:57:48;2.75;;;1.88;;
47365;SDS011;33105;47.964;7.982;2023-07-22T08:00:59;4.63;;;1.70;;
47365;SDS011;33105;47.964;7.982;2023-07-22T08:04:03;5.35;;;1.90;;
47365;SDS011;33105;47.964;7.982;2023-07-22T08:07:05;7.57;;;1.80;;
47365;SDS011;33105;47.964;7.982;2023-07-22T08:10:07;4.05;;;1.95;;
47365;SDS011;33105;47.964;7.982;2023-07-22T08:13:10;3.17;;;1.77;;
47365;SDS011;33105;47.964;7.982;2023-07-22T08:19:38;3.45;;;1.70;;
47365;SDS011;33105;47.964;7.982;2023-07-22T08:22:39;2.70;;;1.80;;
47365;SDS011;33105;47.964;7.982;2023-07-22T08:25:40;4.22;;;1.70;;
47365;SDS011;33105;47.964;7.982;2023-07-22T08:28:42;3.83;;;1.70;;
47365;SDS011;33105;47.964;7.982;2023-07-22T08:31:43;4.05;;;1.75;;
47365;SDS011;33105;47.964;7.982;2023-07-22T08:34:44;5.25;;;1.90;;
47365;SDS011;33105;47.964;7.982;2023-07-22T08:37:45;2.70;;;1.90;;
47365;SDS011;33105;47.964;7.982;2023-07-22T08:40:48;5.78;;;1.95;;
47365;SDS011;33105;47.964;7.982;2023-07-22T08:43:53;3.95;;;1.98;;
47365;SDS011;33105;47.964;7.982;2023-07-22T08:46:57;4.47;;;2.00;;
47365;SDS011;33105;47.964;7.982;2023-07-22T08:50:01;2.63;;;1.80;;
47365;SDS011;33105;47.964;7.982;2023-07-22T08:53:05;3.47;;;1.67;;
47365;SDS011;33105;47.964;7.982;2023-07-22T08:56:06;5.40;;;1.63;;
47365;SDS011;33105;47.964;7.982;2023-07-22T08:59:07;3.67;;;1.80;;
47365;SDS011;33105;47.964;7.982;2023-07-22T09:02:10;2.13;;;1.60;;
47365;SDS011;33105;47.964;7.982;2023-07-22T09:05:13;3.78;;;1.67;;
47365;SDS011;33105;47.964;7.982;2023-07-22T09:08:15;4.72;;;1.60;;
47365;SDS011;33105;47.964;7.982;2023-07-22T09:11:18;1.45;;;1.08;;
47365;SDS011;33105;47.964;7.982;2023-07-22T09:14:20;1.60;;;1.30;;
47365;SDS011;33105;47.964;7.982;2023-07-22T09:17:22;1.50;;;1.27;;
47365;SDS011;33105;47.964;7.982;2023-07-22T09:20:24;4.53;;;1.17;;
47365;SDS011;33105;47.964;7.982;2023-07-22T09:23:34;13.13;;;1.10;;
47365;SDS011;33105;47.964;7.982;2023-07-22T09:26:35;4.27;;;1.03;;
47365;SDS011;33105;47.964;7.982;2023-07-22T09:29:37;5.43;;;1.10;;
47365;SDS011;33105;47.964;7.982;2023-07-22T09:32:40;0.88;;;0.75;;
47365;SDS011;33105;47.964;7.982;2023-07-22T09:35:45;2.78;;;1.00;;
47365;SDS011;33105;47.964;7.982;2023-07-22T09:39:06;1.38;;;0.95;;
47365;SDS011;33105;47.964;7.982;2023-07-22T09:42:08;1.63;;;1.15;;
47365;SDS011;33105;47.964;7.982;2023-07-22T09:45:09;1.67;;;0.98;;
47365;SDS011;33105;47.964;7.982;2023-07-22T09:48:11;2.53;;;0.88;;
47365;SDS011;33105;47.964;7.982;2023-07-22T09:51:13;2.70;;;1.10;;
47365;SDS011;33105;47.964;7.982;2023-07-22T09:54:15;1.52;;;1.00;;
47365;SDS011;33105;47.964;7.982;2023-07-22T09:57:17;4.13;;;1.17;;
47365;SDS011;33105;47.964;7.982;2023-07-22T10:00:19;2.60;;;1.00;;
47365;SDS011;33105;47.964;7.982;2023-07-22T10:03:21;2.22;;;0.95;;
47365;SDS011;33105;47.964;7.982;2023-07-22T10:06:28;1.98;;;1.20;;
47365;SDS011;33105;47.964;7.982;2023-07-22T10:09:29;2.17;;;1.08;;
47365;SDS011;33105;47.964;7.982;2023-07-22T10:12:35;1.92;;;1.30;;
47365;SDS011;33105;47.964;7.982;2023-07-22T10:15:51;1.73;;;1.27;;
47365;SDS011;33105;47.964;7.982;2023-07-22T10:19:00;2.13;;;1.02;;
47365;SDS011;33105;47.964;7.982;2023-07-22T10:22:05;2.38;;;1.20;;
47365;SDS011;33105;47.964;7.982;2023-07-22T10:25:12;2.33;;;1.42;;
47365;SDS011;33105;47.964;7.982;2023-07-22T10:28:23;5.35;;;1.60;;
47365;SDS011;33105;47.964;7.982;2023-07-22T10:32:06;1.80;;;1.30;;
47365;SDS011;33105;47.964;7.982;2023-07-22T10:35:39;1.70;;;1.48;;
47365;SDS011;33105;47.964;7.982;2023-07-22T10:38:55;2.20;;;1.70;;
47365;SDS011;33105;47.964;7.982;2023-07-22T10:46:09;1.77;;;1.23;;
47365;SDS011;33105;47.964;7.982;2023-07-22T10:49:13;6.15;;;1.40;;
47365;SDS011;33105;47.964;7.982;2023-07-22T10:52:37;2.97;;;1.45;;
47365;SDS011;33105;47.964;7.982;2023-07-22T10:59:14;1.75;;;1.40;;
47365;SDS011;33105;47.964;7.982;2023-07-22T11:02:27;1.60;;;1.50;;
47365;SDS011;33105;47.964;7.982;2023-07-22T11:05:47;2.65;;;1.50;;
47365;SDS011;33105;47.964;7.982;2023-07-22T11:08:53;2.97;;;1.58;;
47365;SDS011;33105;47.964;7.982;2023-07-22T11:15:21;2.47;;;1.73;;
47365;SDS011;33105;47.964;7.982;2023-07-22T11:18:34;6.40;;;1.70;;
47365;SDS011;33105;47.964;7.982;2023-07-22T11:21:40;2.22;;;1.75;;
47365;SDS011;33105;47.964;7.982;2023-07-22T11:24:45;6.20;;;1.88;;
47365;SDS011;33105;47.964;7.982;2023-07-22T11:28:02;2.45;;;1.80;;
47365;SDS011;33105;47.964;7.982;2023-07-22T11:31:04;4.25;;;1.98;;
47365;SDS011;33105;47.964;7.982;2023-07-22T11:35:05;2.42;;;1.80;;
47365;SDS011;33105;47.964;7.982;2023-07-22T11:38:07;2.75;;;1.45;;
47365;SDS011;33105;47.964;7.982;2023-07-22T11:41:08;2.40;;;2.08;;
47365;SDS011;33105;47.964;7.982;2023-07-22T11:44:13;2.05;;;1.75;;
47365;SDS011;33105;47.964;7.982;2023-07-22T11:50:51;4.15;;;2.13;;
47365;SDS011;33105;47.964;7.982;2023-07-22T11:53:53;1.92;;;1.55;;
47365;SDS011;33105;47.964;7.982;2023-07-22T11:56:56;2.20;;;1.85;;
47365;SDS011;33105;47.964;7.982;2023-07-22T11:59:58;3.67;;;1.50;;
47365;SDS011;33105;47.964;7.982;2023-07-22T12:03:05;2.30;;;1.80;;
47365;SDS011;33105;47.964;7.982;2023-07-22T12:06:24;2.53;;;1.70;;
47365;SDS011;33105;47.964;7.982;2023-07-22T12:09:34;2.75;;;1.85;;
47365;SDS011;33105;47.964;7.982;2023-07-22T12:12:38;7.15;;;1.90;;
47365;SDS011;33105;47.964;7.982;2023-07-22T12:16:12;4.70;;;1.98;;
47365;SDS011;33105;47.964;7.982;2023-07-22T12:19:22;3.78;;;1.80;;
47365;SDS011;33105;47.964;7.982;2023-07-22T12:23:03;2.23;;;1.80;;
47365;SDS011;33105;47.964;7.982;2023-07-22T12:26:39;4.20;;;2.13;;
47365;SDS011;33105;47.964;7.982;2023-07-22T12:29:59;2.78;;;1.92;;
47365;SDS011;33105;47.964;7.982;2023-07-22T12:33:04;3.03;;;1.67;;
47365;SDS011;33105;47.964;7.982;2023-07-22T12:36:05;2.65;;;1.90;;
47365;SDS011;33105;47.964;7.982;2023-07-22T12:39:07;3.25;;;1.90;;
47365;SDS011;33105;47.964;7.982;2023-07-22T12:42:14;2.47;;;1.63;;
47365;SDS011;33105;47.964;7.982;2023-07-22T12:49:04;4.72;;;2.00;;
47365;SDS011;33105;47.964;7.982;2023-07-22T12:52:06;3.75;;;1.80;;
47365;SDS011;33105;47.964;7.982;2023-07-22T12:58:25;2.85;;;1.80;;
47365;SDS011;33105;47.964;7.982;2023-07-22T13:03:19;2.70;;;1.80;;
47365;SDS011;33105;47.964;7.982;2023-07-22T13:11:13;2.72;;;1.83;;
47365;SDS011;33105;47.964;7.982;2023-07-22T13:18:45;4.95;;;1.60;;
47365;SDS011;33105;47.964;7.982;2023-07-22T13:29:11;3.85;;;1.67;;
47365;SDS011;33105;47.964;7.982;2023-07-22T13:32:41;2.03;;;1.38;;
47365;SDS011;33105;47.964;7.982;2023-07-22T13:36:19;4.53;;;1.45;;
47365;SDS011;33105;47.964;7.982;2023-07-22T13:39:20;2.78;;;1.67;;
47365;SDS011;33105;47.964;7.982;2023-07-22T13:45:49;4.38;;;1.50;;
47365;SDS011;33105;47.964;7.982;2023-07-22T13:48:51;3.67;;;1.38;;
47365;SDS011;33105;47.964;7.982;2023-07-22T13:52:20;3.95;;;1.70;;
47365;SDS011;33105;47.964;7.982;2023-07-22T13:55:21;2.17;;;1.65;;
47365;SDS011;33105;47.964;7.982;2023-07-22T14:06:13;3.28;;;1.98;;
47365;SDS011;33105;47.964;7.982;2023-07-22T14:12:41;2.53;;;1.60;;
47365;SDS011;33105;47.964;7.982;2023-07-22T14:15:43;2.65;;;1.70;;
47365;SDS011;33105;47.964;7.982;2023-07-22T14:18:44;2.47;;;1.80;;
47365;SDS011;33105;47.964;7.982;2023-07-22T14:21:55;2.58;;;1.50;;
47365;SDS011;33105;47.964;7.982;2023-07-22T14:39:24;2.88;;;1.73;;
47365;SDS011;33105;47.964;7.982;2023-07-22T14:42:46;6.65;;;1.35;;
47365;SDS011;33105;47.964;7.982;2023-07-22T14:46:10;3.28;;;1.40;;
47365;SDS011;33105;47.964;7.982;2023-07-22T14:49:11;4.88;;;1.40;;
47365;SDS011;33105;47.964;7.982;2023-07-22T14:52:13;5.15;;;1.17;;
47365;SDS011;33105;47.964;7.982;2023-07-22T15:00:14;1.65;;;1.20;;
47365;SDS011;33105;47.964;7.982;2023-07-22T15:03:24;2.28;;;1.38;;
47365;SDS011;33105;47.964;7.982;2023-07-22T15:09:52;3.47;;;1.17;;
47365;SDS011;33105;47.964;7.982;2023-07-22T15:26:26;2.40;;;1.20;;
47365;SDS011;33105;47.964;7.982;2023-07-22T15:30:03;2.75;;;1.30;;
47365;SDS011;33105;47.964;7.982;2023-07-22T15:33:15;1.67;;;1.00;;
47365;SDS011;33105;47.964;7.982;2023-07-22T15:36:17;1.10;;;1.02;;
47365;SDS011;33105;47.964;7.982;2023-07-22T15:39:21;1.98;;;1.20;;
47365;SDS011;33105;47.964;7.982;2023-07-22T15:42:52;1.23;;;1.10;;
47365;SDS011;33105;47.964;7.982;2023-07-22T15:45:54;2.03;;;1.23;;
47365;SDS011;33105;47.964;7.982;2023-07-22T15:49:22;1.30;;;1.20;;
47365;SDS011;33105;47.964;7.982;2023-07-22T15:52:34;2.30;;;1.30;;
47365;SDS011;33105;47.964;7.982;2023-07-22T15:55:50;4.82;;;1.33;;
47365;SDS011;33105;47.964;7.982;2023-07-22T16:09:09;3.00;;;1.20;;
47365;SDS011;33105;47.964;7.982;2023-07-22T16:12:19;3.00;;;1.73;;
47365;SDS011;33105;47.964;7.982;2023-07-22T16:16:10;3.47;;;1.40;;
47365;SDS011;33105;47.964;7.982;2023-07-22T16:20:29;3.17;;;1.60;;
47365;SDS011;33105;47.964;7.982;2023-07-22T16:27:49;2.05;;;1.50;;
47365;SDS011;33105;47.964;7.982;2023-07-22T16:31:04;1.33;;;1.20;;
47365;SDS011;33105;47.964;7.982;2023-07-22T16:34:20;3.55;;;1.48;;
47365;SDS011;33105;47.964;7.982;2023-07-22T16:37:55;2.17;;;1.48;;
47365;SDS011;33105;47.964;7.982;2023-07-22T16:42:08;3.63;;;1.40;;
47365;SDS011;33105;47.964;7.982;2023-07-22T16:57:59;4.35;;;1.40;;
47365;SDS011;33105;47.964;7.982;2023-07-22T17:01:01;4.57;;;1.90;;
47365;SDS011;33105;47.964;7.982;2023-07-22T17:04:38;2.67;;;2.00;;
47365;SDS011;33105;47.964;7.982;2023-07-22T17:07:39;2.75;;;1.80;;
47365;SDS011;33105;47.964;7.982;2023-07-22T17:10:42;2.63;;;1.90;;
47365;SDS011;33105;47.964;7.982;2023-07-22T17:18:33;3.00;;;1.95;;
47365;SDS011;33105;47.964;7.982;2023-07-22T17:25:22;5.88;;;1.77;;
47365;SDS011;33105;47.964;7.982;2023-07-22T17:28:23;3.75;;;2.00;;
47365;SDS011;33105;47.964;7.982;2023-07-22T17:31:27;2.42;;;1.77;;
47365;SDS011;33105;47.964;7.982;2023-07-22T17:35:05;4.47;;;1.85;;
47365;SDS011;33105;47.964;7.982;2023-07-22T17:38:15;2.20;;;1.80;;
47365;SDS011;33105;47.964;7.982;2023-07-22T17:41:37;4.70;;;2.10;;
47365;SDS011;33105;47.964;7.982;2023-07-22T17:44:43;3.67;;;1.70;;
47365;SDS011;33105;47.964;7.982;2023-07-22T17:47:44;2.88;;;1.60;;
47365;SDS011;33105;47.964;7.982;2023-07-22T17:50:46;2.78;;;1.70;;
47365;SDS011;33105;47.964;7.982;2023-07-22T17:53:47;2.80;;;2.05;;
47365;SDS011;33105;47.964;7.982;2023-07-22T17:56:49;4.45;;;2.25;;
47365;SDS011;33105;47.964;7.982;2023-07-22T17:59:50;3.97;;;2.15;;
47365;SDS011;33105;47.964;7.982;2023-07-22T18:02:52;2.63;;;1.90;;
47365;SDS011;33105;47.964;7.982;2023-07-22T18:05:53;3.08;;;1.50;;
47365;SDS011;33105;47.964;7.982;2023-07-22T18:08:54;2.65;;;1.48;;
47365;SDS011;33105;47.964;7.982;2023-07-22T18:15:13;3.72;;;1.88;;
47365;SDS011;33105;47.964;7.982;2023-07-22T18:18:24;4.00;;;2.00;;
47365;SDS011;33105;47.964;7.982;2023-07-22T18:21:28;2.55;;;1.90;;
47365;SDS011;33105;47.964;7.982;2023-07-22T18:24:56;3.65;;;2.10;;
47365;SDS011;33105;47.964;7.982;2023-07-22T18:28:02;3.17;;;1.98;;
47365;SDS011;33105;47.964;7.982;2023-07-22T18:31:56;4.88;;;2.00;;
47365;SDS011;33105;47.964;7.982;2023-07-22T18:35:07;6.47;;;1.83;;
47365;SDS011;33105;47.964;7.982;2023-07-22T18:38:16;3.60;;;2.40;;
47365;SDS011;33105;47.964;7.982;2023-07-22T18:41:21;5.10;;;2.75;;
47365;SDS011;33105;47.964;7.982;2023-07-22T18:44:23;8.25;;;2.40;;
47365;SDS011;33105;47.964;7.982;2023-07-22T18:47:24;3.58;;;2.20;;
47365;SDS011;33105;47.964;7.982;2023-07-22T18:50:25;2.20;;;1.77;;
47365;SDS011;33105;47.964;7.982;2023-07-22T18:53:27;7.28;;;1.95;;
47365;SDS011;33105;47.964;7.982;2023-07-22T18:56:28;2.97;;;2.10;;
47365;SDS011;33105;47.964;7.982;2023-07-22T18:59:29;4.25;;;2.00;;
47365;SDS011;33105;47.964;7.982;2023-07-22T19:02:31;3.38;;;2.00;;
47365;SDS011;33105;47.964;7.982;2023-07-22T19:05:32;2.45;;;1.85;;
47365;SDS011;33105;47.964;7.982;2023-07-22T19:08:38;2.22;;;1.70;;
47365;SDS011;33105;47.964;7.982;2023-07-22T19:11:39;3.58;;;1.73;;
47365;SDS011;33105;47.964;7.982;2023-07-22T19:14:40;2.50;;;1.63;;
47365;SDS011;33105;47.964;7.982;2023-07-22T19:17:42;2.70;;;1.90;;
47365;SDS011;33105;47.964;7.982;2023-07-22T19:20:43;2.05;;;1.70;;
47365;SDS011;33105;47.964;7.982;2023-07-22T19:23:54;2.88;;;1.90;;
47365;SDS011;33105;47.964;7.982;2023-07-22T19:26:55;3.45;;;2.05;;
47365;SDS011;33105;47.964;7.982;2023-07-22T19:29:57;2.35;;;1.73;;
47365;SDS011;33105;47.964;7.982;2023-07-22T19:32:59;2.92;;;1.73;;
47365;SDS011;33105;47.964;7.982;2023-07-22T19:36:04;2.72;;;2.00;;
47365;SDS011;33105;47.964;7.982;2023-07-22T19:39:06;4.00;;;2.05;;
47365;SDS011;33105;47.964;7.982;2023-07-22T19:42:08;2.05;;;1.83;;
47365;SDS011;33105;47.964;7.982;2023-07-22T19:45:09;7.10;;;2.15;;
47365;SDS011;33105;47.964;7.982;2023-07-22T19:48:10;2.63;;;1.80;;
47365;SDS011;33105;47.964;7.982;2023-07-22T19:51:12;4.57;;;1.83;;
47365;SDS011;33105;47.964;7.982;2023-07-22T19:54:14;3.80;;;2.10;;
47365;SDS011;33105;47.964;7.982;2023-07-22T19:57:15;3.58;;;2.25;;
47365;SDS011;33105;47.964;7.982;2023-07-22T20:00:17;3.72;;;1.92;;
47365;SDS011;33105;47.964;7.982;2023-07-22T20:03:18;3.60;;;2.17;;
47365;SDS011;33105;47.964;7.982;2023-07-22T20:06:19;5.68;;;2.08;;
47365;SDS011;33105;47.964;7.982;2023-07-22T20:09:21;2.38;;;1.83;;
47365;SDS011;33105;47.964;7.982;2023-07-22T20:12:22;4.40;;;1.83;;
47365;SDS011;33105;47.964;7.982;2023-07-22T20:15:26;4.70;;;1.80;;
47365;SDS011;33105;47.964;7.982;2023-07-22T20:18:28;3.17;;;1.90;;
47365;SDS011;33105;47.964;7.982;2023-07-22T20:21:35;4.60;;;2.10;;
47365;SDS011;33105;47.964;7.982;2023-07-22T20:24:46;2.15;;;1.85;;
47365;SDS011;33105;47.964;7.982;2023-07-22T20:27:51;4.55;;;2.05;;
47365;SDS011;33105;47.964;7.982;2023-07-22T20:31:16;3.28;;;2.20;;
47365;SDS011;33105;47.964;7.982;2023-07-22T20:34:23;2.92;;;2.42;;
47365;SDS011;33105;47.964;7.982;2023-07-22T20:37:25;4.55;;;2.60;;
47365;SDS011;33105;47.964;7.982;2023-07-22T20:40:33;4.90;;;2.28;;
47365;SDS011;33105;47.964;7.982;2023-07-22T20:43:41;5.68;;;2.40;;
47365;SDS011;33105;47.964;7.982;2023-07-22T20:47:28;2.80;;;2.28;;
47365;SDS011;33105;47.964;7.982;2023-07-22T20:50:33;3.60;;;2.60;;
47365;SDS011;33105;47.964;7.982;2023-07-22T20:54:24;6.80;;;2.50;;
47365;SDS011;33105;47.964;7.982;2023-07-22T20:57:26;3.78;;;2.53;;
47365;SDS011;33105;47.964;7.982;2023-07-22T21:00:29;4.43;;;2.67;;
47365;SDS011;33105;47.964;7.982;2023-07-22T21:04:19;3.90;;;2.35;;
47365;SDS011;33105;47.964;7.982;2023-07-22T21:15:40;5.25;;;2.70;;
47365;SDS011;33105;47.964;7.982;2023-07-22T21:23:35;3.35;;;2.38;;
47365;SDS011;33105;47.964;7.982;2023-07-22T21:39:39;4.40;;;2.72;;
47365;SDS011;33105;47.964;7.982;2023-07-22T21:42:40;3.60;;;2.42;;
47365;SDS011;33105;47.964;7.982;2023-07-22T21:45:43;4.95;;;2.72;;
47365;SDS011;33105;47.964;7.982;2023-07-22T21:48:47;4.82;;;2.50;;